Frisco, North Carolina
Current Conditions -  °F | °C
As of 6:51 PM on Wednesday 28 Jan 2015 (Local Time) from KHSE Reporting Station
Clear Clear  
Wind Chill: 31°   Ceiling: Unl
Heat Index: 38°   Visibility: 10mi
Dew Point: 18°   Wind: 10mph
Humidity: 44%   Direction: 330°NNW
Pressure: 30.25"   Gusts: 17mph
Location:  35.23°N, 75.63°W
Report Text: KHSE 282351Z AUTO 33009G15KT 10SM CLR 03/M08 A3025 RMK AO2 SLP244 T00331078 10050 20033 53024 TSNO
Loading
Personal Weather Stations






























Interactive Weather Map New forecast layout! Learn more

10-Day Weather Forecast

Advertisements
Track Severe Weather on mobile